sensor_id;sensor_type;location;lat;lon;timestamp;P1;durP1;ratioP1;P2;durP2;ratioP2
22863;SDS011;11599;49.882;8.680;2024-02-14T00:01:33;5.80;;;1.70;;
22863;SDS011;11599;49.882;8.680;2024-02-14T00:11:57;5.27;;;1.77;;
22863;SDS011;11599;49.882;8.680;2024-02-14T00:22:20;6.27;;;2.23;;
22863;SDS011;11599;49.882;8.680;2024-02-14T00:32:41;3.53;;;1.93;;
22863;SDS011;11599;49.882;8.680;2024-02-14T00:43:04;3.67;;;2.13;;
22863;SDS011;11599;49.882;8.680;2024-02-14T00:53:25;4.20;;;1.97;;
22863;SDS011;11599;49.882;8.680;2024-02-14T01:03:48;5.07;;;2.13;;
22863;SDS011;11599;49.882;8.680;2024-02-14T01:14:10;4.83;;;2.00;;
22863;SDS011;11599;49.882;8.680;2024-02-14T01:24:34;5.03;;;1.83;;
22863;SDS011;11599;49.882;8.680;2024-02-14T01:34:55;3.13;;;1.33;;
22863;SDS011;11599;49.882;8.680;2024-02-14T01:45:18;6.93;;;1.67;;
22863;SDS011;11599;49.882;8.680;2024-02-14T01:55:39;5.23;;;1.50;;
22863;SDS011;11599;49.882;8.680;2024-02-14T02:06:04;5.30;;;1.23;;
22863;SDS011;11599;49.882;8.680;2024-02-14T02:16:26;5.53;;;1.30;;
22863;SDS011;11599;49.882;8.680;2024-02-14T02:26:49;4.87;;;1.40;;
22863;SDS011;11599;49.882;8.680;2024-02-14T02:37:10;3.40;;;1.17;;
22863;SDS011;11599;49.882;8.680;2024-02-14T02:47:33;4.60;;;1.97;;
22863;SDS011;11599;49.882;8.680;2024-02-14T02:57:54;5.17;;;1.63;;
22863;SDS011;11599;49.882;8.680;2024-02-14T03:08:17;4.53;;;2.10;;
22863;SDS011;11599;49.882;8.680;2024-02-14T03:18:39;3.13;;;1.90;;
22863;SDS011;11599;49.882;8.680;2024-02-14T03:29:02;5.57;;;2.10;;
22863;SDS011;11599;49.882;8.680;2024-02-14T03:39:26;3.20;;;1.80;;
22863;SDS011;11599;49.882;8.680;2024-02-14T03:49:49;6.87;;;2.10;;
22863;SDS011;11599;49.882;8.680;2024-02-14T04:00:11;6.50;;;1.63;;
22863;SDS011;11599;49.882;8.680;2024-02-14T04:10:35;5.20;;;1.67;;
22863;SDS011;11599;49.882;8.680;2024-02-14T04:20:56;4.60;;;1.40;;
22863;SDS011;11599;49.882;8.680;2024-02-14T04:31:19;8.83;;;2.17;;
22863;SDS011;11599;49.882;8.680;2024-02-14T04:41:40;5.70;;;2.00;;
22863;SDS011;11599;49.882;8.680;2024-02-14T04:52:03;5.17;;;1.73;;
22863;SDS011;11599;49.882;8.680;2024-02-14T05:02:25;6.47;;;2.07;;
22863;SDS011;11599;49.882;8.680;2024-02-14T05:12:48;9.13;;;2.10;;
22863;SDS011;11599;49.882;8.680;2024-02-14T05:23:09;6.70;;;2.37;;
22863;SDS011;11599;49.882;8.680;2024-02-14T05:33:32;5.47;;;1.90;;
22863;SDS011;11599;49.882;8.680;2024-02-14T05:43:54;8.30;;;2.60;;
22863;SDS011;11599;49.882;8.680;2024-02-14T05:54:16;6.03;;;2.10;;
22863;SDS011;11599;49.882;8.680;2024-02-14T06:04:38;13.23;;;2.30;;
22863;SDS011;11599;49.882;8.680;2024-02-14T06:15:01;13.40;;;3.00;;
22863;SDS011;11599;49.882;8.680;2024-02-14T06:25:22;7.33;;;2.50;;
22863;SDS011;11599;49.882;8.680;2024-02-14T06:35:45;5.53;;;2.23;;
22863;SDS011;11599;49.882;8.680;2024-02-14T06:46:08;6.37;;;2.20;;
22863;SDS011;11599;49.882;8.680;2024-02-14T06:56:31;5.77;;;2.30;;
22863;SDS011;11599;49.882;8.680;2024-02-14T07:06:55;7.17;;;2.80;;
22863;SDS011;11599;49.882;8.680;2024-02-14T07:17:19;6.33;;;2.43;;
22863;SDS011;11599;49.882;8.680;2024-02-14T07:27:40;6.90;;;2.70;;
22863;SDS011;11599;49.882;8.680;2024-02-14T07:38:03;5.10;;;2.10;;
22863;SDS011;11599;49.882;8.680;2024-02-14T07:48:24;7.27;;;2.80;;
22863;SDS011;11599;49.882;8.680;2024-02-14T07:58:47;8.27;;;2.70;;
22863;SDS011;11599;49.882;8.680;2024-02-14T08:09:09;6.93;;;2.50;;
22863;SDS011;11599;49.882;8.680;2024-02-14T08:19:33;12.37;;;2.70;;
22863;SDS011;11599;49.882;8.680;2024-02-14T08:29:55;5.17;;;2.03;;
22863;SDS011;11599;49.882;8.680;2024-02-14T08:40:18;7.07;;;2.23;;
22863;SDS011;11599;49.882;8.680;2024-02-14T08:50:39;6.87;;;2.10;;
22863;SDS011;11599;49.882;8.680;2024-02-14T09:01:02;11.53;;;2.60;;
22863;SDS011;11599;49.882;8.680;2024-02-14T09:11:24;4.57;;;2.60;;
22863;SDS011;11599;49.882;8.680;2024-02-14T09:21:47;8.53;;;2.80;;
22863;SDS011;11599;49.882;8.680;2024-02-14T09:32:09;5.53;;;2.17;;
22863;SDS011;11599;49.882;8.680;2024-02-14T09:42:33;5.27;;;2.53;;
22863;SDS011;11599;49.882;8.680;2024-02-14T09:52:57;7.10;;;2.40;;
22863;SDS011;11599;49.882;8.680;2024-02-14T10:03:20;8.13;;;2.40;;
22863;SDS011;11599;49.882;8.680;2024-02-14T10:13:43;4.93;;;1.93;;
22863;SDS011;11599;49.882;8.680;2024-02-14T10:24:07;6.50;;;2.60;;
22863;SDS011;11599;49.882;8.680;2024-02-14T10:34:29;5.90;;;2.80;;
22863;SDS011;11599;49.882;8.680;2024-02-14T10:44:52;5.30;;;2.33;;
22863;SDS011;11599;49.882;8.680;2024-02-14T10:55:14;6.90;;;2.63;;
22863;SDS011;11599;49.882;8.680;2024-02-14T11:05:44;5.77;;;2.70;;
22863;SDS011;11599;49.882;8.680;2024-02-14T11:16:09;11.63;;;2.77;;
22863;SDS011;11599;49.882;8.680;2024-02-14T11:26:38;6.40;;;2.70;;
22863;SDS011;11599;49.882;8.680;2024-02-14T11:37:00;5.83;;;2.30;;
22863;SDS011;11599;49.882;8.680;2024-02-14T11:47:23;6.67;;;2.10;;
22863;SDS011;11599;49.882;8.680;2024-02-14T11:57:45;5.37;;;2.03;;
22863;SDS011;11599;49.882;8.680;2024-02-14T12:08:10;4.60;;;1.80;;
22863;SDS011;11599;49.882;8.680;2024-02-14T12:18:34;5.57;;;1.70;;
22863;SDS011;11599;49.882;8.680;2024-02-14T12:28:57;6.13;;;2.00;;
22863;SDS011;11599;49.882;8.680;2024-02-14T12:39:19;3.13;;;1.53;;
22863;SDS011;11599;49.882;8.680;2024-02-14T12:49:42;3.97;;;1.43;;
22863;SDS011;11599;49.882;8.680;2024-02-14T13:00:03;3.23;;;1.80;;
22863;SDS011;11599;49.882;8.680;2024-02-14T13:10:30;10.53;;;1.80;;
22863;SDS011;11599;49.882;8.680;2024-02-14T13:20:51;3.87;;;1.70;;
22863;SDS011;11599;49.882;8.680;2024-02-14T13:31:20;2.80;;;1.40;;
22863;SDS011;11599;49.882;8.680;2024-02-14T13:41:42;2.93;;;1.60;;
22863;SDS011;11599;49.882;8.680;2024-02-14T13:52:07;4.00;;;1.67;;
22863;SDS011;11599;49.882;8.680;2024-02-14T14:02:29;3.23;;;1.30;;
22863;SDS011;11599;49.882;8.680;2024-02-14T14:12:52;5.13;;;2.40;;
22863;SDS011;11599;49.882;8.680;2024-02-14T14:23:13;5.73;;;2.57;;
22863;SDS011;11599;49.882;8.680;2024-02-14T14:33:36;6.40;;;2.50;;
22863;SDS011;11599;49.882;8.680;2024-02-14T14:43:58;5.83;;;2.20;;
22863;SDS011;11599;49.882;8.680;2024-02-14T14:54:21;6.70;;;2.40;;
22863;SDS011;11599;49.882;8.680;2024-02-14T15:04:42;5.37;;;2.17;;
22863;SDS011;11599;49.882;8.680;2024-02-14T15:15:08;6.30;;;2.30;;
22863;SDS011;11599;49.882;8.680;2024-02-14T15:25:30;6.37;;;2.30;;
22863;SDS011;11599;49.882;8.680;2024-02-14T15:35:53;5.33;;;2.30;;
22863;SDS011;11599;49.882;8.680;2024-02-14T15:46:16;3.33;;;1.90;;
22863;SDS011;11599;49.882;8.680;2024-02-14T15:56:39;2.47;;;1.57;;
22863;SDS011;11599;49.882;8.680;2024-02-14T16:07:05;5.17;;;1.70;;
22863;SDS011;11599;49.882;8.680;2024-02-14T16:17:28;6.20;;;2.20;;
22863;SDS011;11599;49.882;8.680;2024-02-14T16:27:50;3.57;;;2.03;;
22863;SDS011;11599;49.882;8.680;2024-02-14T16:38:14;2.13;;;1.57;;
22863;SDS011;11599;49.882;8.680;2024-02-14T16:48:36;2.87;;;1.47;;
22863;SDS011;11599;49.882;8.680;2024-02-14T16:58:59;2.43;;;1.50;;
22863;SDS011;11599;49.882;8.680;2024-02-14T17:09:20;3.37;;;1.40;;
22863;SDS011;11599;49.882;8.680;2024-02-14T17:19:46;4.40;;;1.50;;
22863;SDS011;11599;49.882;8.680;2024-02-14T17:30:07;3.17;;;1.50;;
22863;SDS011;11599;49.882;8.680;2024-02-14T17:40:33;3.93;;;1.60;;
22863;SDS011;11599;49.882;8.680;2024-02-14T17:50:55;3.13;;;1.83;;
22863;SDS011;11599;49.882;8.680;2024-02-14T18:01:17;2.63;;;2.00;;
22863;SDS011;11599;49.882;8.680;2024-02-14T18:11:40;3.53;;;1.90;;
22863;SDS011;11599;49.882;8.680;2024-02-14T18:22:02;4.83;;;2.40;;
22863;SDS011;11599;49.882;8.680;2024-02-14T18:32:24;2.40;;;1.93;;
22863;SDS011;11599;49.882;8.680;2024-02-14T18:42:47;3.93;;;2.30;;
22863;SDS011;11599;49.882;8.680;2024-02-14T18:53:08;3.00;;;1.77;;
22863;SDS011;11599;49.882;8.680;2024-02-14T19:03:31;4.10;;;2.00;;
22863;SDS011;11599;49.882;8.680;2024-02-14T19:13:53;3.60;;;2.10;;
22863;SDS011;11599;49.882;8.680;2024-02-14T19:24:16;4.20;;;2.10;;
22863;SDS011;11599;49.882;8.680;2024-02-14T19:34:37;2.73;;;1.60;;
22863;SDS011;11599;49.882;8.680;2024-02-14T19:45:01;2.73;;;1.90;;
22863;SDS011;11599;49.882;8.680;2024-02-14T19:55:24;4.70;;;1.97;;
22863;SDS011;11599;49.882;8.680;2024-02-14T20:05:47;4.73;;;2.30;;
22863;SDS011;11599;49.882;8.680;2024-02-14T20:16:10;4.97;;;2.00;;
22863;SDS011;11599;49.882;8.680;2024-02-14T20:26:33;6.80;;;2.60;;
22863;SDS011;11599;49.882;8.680;2024-02-14T20:36:55;8.10;;;2.33;;
22863;SDS011;11599;49.882;8.680;2024-02-14T20:47:18;5.13;;;2.10;;
22863;SDS011;11599;49.882;8.680;2024-02-14T20:57:39;5.53;;;2.40;;
22863;SDS011;11599;49.882;8.680;2024-02-14T21:08:03;4.37;;;1.90;;
22863;SDS011;11599;49.882;8.680;2024-02-14T21:18:24;5.67;;;2.20;;
22863;SDS011;11599;49.882;8.680;2024-02-14T21:28:48;6.40;;;2.37;;
22863;SDS011;11599;49.882;8.680;2024-02-14T21:39:11;8.23;;;2.43;;
22863;SDS011;11599;49.882;8.680;2024-02-14T21:49:36;5.53;;;3.07;;
22863;SDS011;11599;49.882;8.680;2024-02-14T21:59:58;7.53;;;2.93;;
22863;SDS011;11599;49.882;8.680;2024-02-14T22:10:35;7.97;;;2.90;;
22863;SDS011;11599;49.882;8.680;2024-02-14T22:20:57;6.80;;;3.20;;
22863;SDS011;11599;49.882;8.680;2024-02-14T22:31:19;7.03;;;3.10;;
22863;SDS011;11599;49.882;8.680;2024-02-14T22:41:41;9.03;;;4.10;;
22863;SDS011;11599;49.882;8.680;2024-02-14T22:52:04;8.53;;;3.80;;
22863;SDS011;11599;49.882;8.680;2024-02-14T23:02:27;7.20;;;3.13;;
22863;SDS011;11599;49.882;8.680;2024-02-14T23:12:49;7.77;;;2.90;;
22863;SDS011;11599;49.882;8.680;2024-02-14T23:23:11;9.80;;;3.10;;
22863;SDS011;11599;49.882;8.680;2024-02-14T23:33:34;4.10;;;2.50;;
22863;SDS011;11599;49.882;8.680;2024-02-14T23:43:55;5.97;;;2.40;;
22863;SDS011;11599;49.882;8.680;2024-02-14T23:54:18;5.73;;;2.17;;
